sensor_id;sensor_type;location;lat;lon;timestamp;P1;durP1;ratioP1;P2;durP2;ratioP2
18159;SDS011;9205;52.032;4.314;2022-12-26T00:00:36;8.30;;;4.03;;
18159;SDS011;9205;52.032;4.314;2022-12-26T00:03:03;8.83;;;4.53;;
18159;SDS011;9205;52.032;4.314;2022-12-26T00:05:33;11.33;;;5.27;;
18159;SDS011;9205;52.032;4.314;2022-12-26T00:08:03;8.23;;;4.33;;
18159;SDS011;9205;52.032;4.314;2022-12-26T00:10:32;12.67;;;4.87;;
18159;SDS011;9205;52.032;4.314;2022-12-26T00:12:59;10.53;;;4.90;;
18159;SDS011;9205;52.032;4.314;2022-12-26T00:15:27;9.80;;;5.40;;
18159;SDS011;9205;52.032;4.314;2022-12-26T00:17:54;8.63;;;4.77;;
18159;SDS011;9205;52.032;4.314;2022-12-26T00:20:21;7.90;;;5.07;;
18159;SDS011;9205;52.032;4.314;2022-12-26T00:22:49;10.50;;;5.40;;
18159;SDS011;9205;52.032;4.314;2022-12-26T00:25:17;10.67;;;5.20;;
18159;SDS011;9205;52.032;4.314;2022-12-26T00:27:45;10.70;;;5.03;;
18159;SDS011;9205;52.032;4.314;2022-12-26T00:30:12;10.10;;;4.90;;
18159;SDS011;9205;52.032;4.314;2022-12-26T00:32:40;9.33;;;4.80;;
18159;SDS011;9205;52.032;4.314;2022-12-26T00:35:07;9.50;;;4.73;;
18159;SDS011;9205;52.032;4.314;2022-12-26T00:37:35;9.93;;;4.83;;
18159;SDS011;9205;52.032;4.314;2022-12-26T00:40:02;9.47;;;5.13;;
18159;SDS011;9205;52.032;4.314;2022-12-26T00:42:33;10.27;;;5.17;;
18159;SDS011;9205;52.032;4.314;2022-12-26T00:45:00;9.70;;;5.23;;
18159;SDS011;9205;52.032;4.314;2022-12-26T00:47:28;9.90;;;4.77;;
18159;SDS011;9205;52.032;4.314;2022-12-26T00:49:55;9.87;;;4.83;;
18159;SDS011;9205;52.032;4.314;2022-12-26T00:52:22;10.37;;;4.73;;
18159;SDS011;9205;52.032;4.314;2022-12-26T00:54:49;9.03;;;4.60;;
18159;SDS011;9205;52.032;4.314;2022-12-26T00:57:17;10.80;;;4.97;;
18159;SDS011;9205;52.032;4.314;2022-12-26T00:59:45;8.80;;;3.87;;
18159;SDS011;9205;52.032;4.314;2022-12-26T01:02:13;9.17;;;4.83;;
18159;SDS011;9205;52.032;4.314;2022-12-26T01:04:54;10.37;;;4.90;;
18159;SDS011;9205;52.032;4.314;2022-12-26T01:07:21;9.77;;;5.20;;
18159;SDS011;9205;52.032;4.314;2022-12-26T01:09:49;10.87;;;4.90;;
18159;SDS011;9205;52.032;4.314;2022-12-26T01:12:17;9.77;;;4.93;;
18159;SDS011;9205;52.032;4.314;2022-12-26T01:14:45;8.57;;;4.70;;
18159;SDS011;9205;52.032;4.314;2022-12-26T01:17:13;8.93;;;4.50;;
18159;SDS011;9205;52.032;4.314;2022-12-26T01:19:40;10.17;;;4.80;;
18159;SDS011;9205;52.032;4.314;2022-12-26T01:22:07;10.20;;;5.07;;
18159;SDS011;9205;52.032;4.314;2022-12-26T01:24:35;7.13;;;4.43;;
18159;SDS011;9205;52.032;4.314;2022-12-26T01:27:02;12.03;;;5.47;;
18159;SDS011;9205;52.032;4.314;2022-12-26T01:29:29;6.87;;;3.97;;
18159;SDS011;9205;52.032;4.314;2022-12-26T01:31:58;7.97;;;4.10;;
18159;SDS011;9205;52.032;4.314;2022-12-26T01:34:26;10.40;;;5.03;;
18159;SDS011;9205;52.032;4.314;2022-12-26T01:36:53;7.73;;;4.07;;
18159;SDS011;9205;52.032;4.314;2022-12-26T01:39:21;11.70;;;4.73;;
18159;SDS011;9205;52.032;4.314;2022-12-26T01:41:49;7.90;;;4.10;;
18159;SDS011;9205;52.032;4.314;2022-12-26T01:47:34;8.23;;;4.30;;
18159;SDS011;9205;52.032;4.314;2022-12-26T01:50:12;6.67;;;3.90;;
18159;SDS011;9205;52.032;4.314;2022-12-26T01:53:02;5.93;;;3.73;;
18159;SDS011;9205;52.032;4.314;2022-12-26T01:55:36;8.47;;;3.80;;
18159;SDS011;9205;52.032;4.314;2022-12-26T01:58:05;8.20;;;4.00;;
18159;SDS011;9205;52.032;4.314;2022-12-26T02:00:38;6.53;;;3.60;;
18159;SDS011;9205;52.032;4.314;2022-12-26T02:03:07;5.90;;;3.40;;
18159;SDS011;9205;52.032;4.314;2022-12-26T02:05:54;12.03;;;3.50;;
18159;SDS011;9205;52.032;4.314;2022-12-26T02:08:27;7.13;;;3.50;;
18159;SDS011;9205;52.032;4.314;2022-12-26T02:11:00;8.33;;;3.43;;
18159;SDS011;9205;52.032;4.314;2022-12-26T02:13:39;7.40;;;3.80;;
18159;SDS011;9205;52.032;4.314;2022-12-26T02:16:08;7.47;;;4.13;;
18159;SDS011;9205;52.032;4.314;2022-12-26T02:18:40;8.73;;;4.13;;
18159;SDS011;9205;52.032;4.314;2022-12-26T02:21:22;9.77;;;4.83;;
18159;SDS011;9205;52.032;4.314;2022-12-26T02:27:52;8.07;;;4.57;;
18159;SDS011;9205;52.032;4.314;2022-12-26T02:31:02;8.00;;;4.97;;
18159;SDS011;9205;52.032;4.314;2022-12-26T02:33:39;10.33;;;5.00;;
18159;SDS011;9205;52.032;4.314;2022-12-26T02:36:28;18.33;;;4.97;;
18159;SDS011;9205;52.032;4.314;2022-12-26T02:39:19;10.80;;;5.07;;
18159;SDS011;9205;52.032;4.314;2022-12-26T02:42:08;10.23;;;4.93;;
18159;SDS011;9205;52.032;4.314;2022-12-26T02:44:55;9.70;;;4.13;;
18159;SDS011;9205;52.032;4.314;2022-12-26T02:47:53;7.40;;;3.97;;
18159;SDS011;9205;52.032;4.314;2022-12-26T02:50:32;9.60;;;4.20;;
18159;SDS011;9205;52.032;4.314;2022-12-26T02:53:46;10.00;;;4.57;;
18159;SDS011;9205;52.032;4.314;2022-12-26T02:56:45;10.90;;;5.00;;
18159;SDS011;9205;52.032;4.314;2022-12-26T02:59:39;6.93;;;4.00;;
18159;SDS011;9205;52.032;4.314;2022-12-26T03:02:36;9.67;;;4.27;;
18159;SDS011;9205;52.032;4.314;2022-12-26T03:05:28;9.57;;;3.90;;
18159;SDS011;9205;52.032;4.314;2022-12-26T03:08:21;11.17;;;4.20;;
18159;SDS011;9205;52.032;4.314;2022-12-26T03:11:13;10.00;;;4.30;;
18159;SDS011;9205;52.032;4.314;2022-12-26T03:14:00;8.03;;;4.60;;
18159;SDS011;9205;52.032;4.314;2022-12-26T03:16:40;9.60;;;3.60;;
18159;SDS011;9205;52.032;4.314;2022-12-26T03:19:27;9.33;;;4.07;;
18159;SDS011;9205;52.032;4.314;2022-12-26T03:22:00;7.73;;;4.00;;
18159;SDS011;9205;52.032;4.314;2022-12-26T03:24:50;6.13;;;4.00;;
18159;SDS011;9205;52.032;4.314;2022-12-26T03:27:33;7.90;;;4.63;;
18159;SDS011;9205;52.032;4.314;2022-12-26T03:30:00;7.00;;;3.93;;
18159;SDS011;9205;52.032;4.314;2022-12-26T03:32:45;6.97;;;3.70;;
18159;SDS011;9205;52.032;4.314;2022-12-26T03:35:14;6.37;;;3.47;;
18159;SDS011;9205;52.032;4.314;2022-12-26T03:37:45;5.87;;;3.30;;
18159;SDS011;9205;52.032;4.314;2022-12-26T03:40:24;8.63;;;3.53;;
18159;SDS011;9205;52.032;4.314;2022-12-26T03:43:36;5.83;;;3.33;;
18159;SDS011;9205;52.032;4.314;2022-12-26T03:46:37;6.53;;;3.60;;
18159;SDS011;9205;52.032;4.314;2022-12-26T03:49:39;4.87;;;2.93;;
18159;SDS011;9205;52.032;4.314;2022-12-26T03:52:39;6.60;;;3.43;;
18159;SDS011;9205;52.032;4.314;2022-12-26T03:55:39;5.40;;;2.93;;
18159;SDS011;9205;52.032;4.314;2022-12-26T03:58:36;7.87;;;3.17;;
18159;SDS011;9205;52.032;4.314;2022-12-26T04:01:29;5.47;;;2.80;;
18159;SDS011;9205;52.032;4.314;2022-12-26T04:04:20;3.97;;;2.70;;
18159;SDS011;9205;52.032;4.314;2022-12-26T04:07:08;5.33;;;2.73;;
18159;SDS011;9205;52.032;4.314;2022-12-26T04:10:02;5.20;;;2.67;;
18159;SDS011;9205;52.032;4.314;2022-12-26T04:12:51;8.20;;;2.97;;
18159;SDS011;9205;52.032;4.314;2022-12-26T04:15:41;4.13;;;2.30;;
18159;SDS011;9205;52.032;4.314;2022-12-26T04:18:32;5.23;;;2.60;;
18159;SDS011;9205;52.032;4.314;2022-12-26T04:21:25;3.90;;;2.40;;
18159;SDS011;9205;52.032;4.314;2022-12-26T04:24:21;3.37;;;2.13;;
18159;SDS011;9205;52.032;4.314;2022-12-26T04:27:13;3.90;;;2.40;;
18159;SDS011;9205;52.032;4.314;2022-12-26T04:30:02;9.77;;;2.30;;
18159;SDS011;9205;52.032;4.314;2022-12-26T04:32:48;3.23;;;2.43;;
18159;SDS011;9205;52.032;4.314;2022-12-26T04:35:43;3.50;;;2.00;;
18159;SDS011;9205;52.032;4.314;2022-12-26T04:38:35;3.40;;;2.13;;
18159;SDS011;9205;52.032;4.314;2022-12-26T04:41:25;3.90;;;2.00;;
18159;SDS011;9205;52.032;4.314;2022-12-26T04:44:17;3.20;;;2.30;;
18159;SDS011;9205;52.032;4.314;2022-12-26T04:46:47;4.50;;;1.93;;
18159;SDS011;9205;52.032;4.314;2022-12-26T04:49:16;3.27;;;1.73;;
18159;SDS011;9205;52.032;4.314;2022-12-26T04:52:02;2.83;;;1.60;;
18159;SDS011;9205;52.032;4.314;2022-12-26T04:54:33;2.60;;;1.73;;
18159;SDS011;9205;52.032;4.314;2022-12-26T04:57:00;2.17;;;1.60;;
18159;SDS011;9205;52.032;4.314;2022-12-26T04:59:29;2.13;;;1.60;;
18159;SDS011;9205;52.032;4.314;2022-12-26T05:01:57;6.57;;;1.97;;
18159;SDS011;9205;52.032;4.314;2022-12-26T05:04:42;2.60;;;1.40;;
18159;SDS011;9205;52.032;4.314;2022-12-26T05:07:28;6.97;;;1.70;;
18159;SDS011;9205;52.032;4.314;2022-12-26T05:10:17;2.23;;;1.43;;
18159;SDS011;9205;52.032;4.314;2022-12-26T05:12:48;1.97;;;1.67;;
18159;SDS011;9205;52.032;4.314;2022-12-26T05:15:18;1.80;;;1.40;;
18159;SDS011;9205;52.032;4.314;2022-12-26T05:17:46;2.30;;;1.50;;
18159;SDS011;9205;52.032;4.314;2022-12-26T05:20:31;2.90;;;1.50;;
18159;SDS011;9205;52.032;4.314;2022-12-26T05:23:15;2.17;;;1.33;;
18159;SDS011;9205;52.032;4.314;2022-12-26T05:26:07;5.83;;;1.80;;
18159;SDS011;9205;52.032;4.314;2022-12-26T05:28:58;1.90;;;1.40;;
18159;SDS011;9205;52.032;4.314;2022-12-26T05:31:29;1.93;;;1.30;;
18159;SDS011;9205;52.032;4.314;2022-12-26T05:33:57;4.47;;;1.40;;
18159;SDS011;9205;52.032;4.314;2022-12-26T05:36:36;3.17;;;1.60;;
18159;SDS011;9205;52.032;4.314;2022-12-26T05:39:07;1.90;;;1.60;;
18159;SDS011;9205;52.032;4.314;2022-12-26T05:41:35;1.97;;;1.50;;
18159;SDS011;9205;52.032;4.314;2022-12-26T05:44:04;3.23;;;1.57;;
18159;SDS011;9205;52.032;4.314;2022-12-26T05:46:34;2.23;;;1.73;;
18159;SDS011;9205;52.032;4.314;2022-12-26T05:49:02;2.00;;;1.50;;
18159;SDS011;9205;52.032;4.314;2022-12-26T05:51:31;3.40;;;1.53;;
18159;SDS011;9205;52.032;4.314;2022-12-26T05:53:59;3.23;;;1.70;;
18159;SDS011;9205;52.032;4.314;2022-12-26T05:56:27;2.83;;;2.07;;
18159;SDS011;9205;52.032;4.314;2022-12-26T05:58:55;2.27;;;1.57;;
18159;SDS011;9205;52.032;4.314;2022-12-26T06:01:26;3.07;;;2.00;;
18159;SDS011;9205;52.032;4.314;2022-12-26T06:03:57;5.23;;;2.03;;
18159;SDS011;9205;52.032;4.314;2022-12-26T06:06:25;5.30;;;2.00;;
18159;SDS011;9205;52.032;4.314;2022-12-26T06:08:54;9.20;;;1.80;;
18159;SDS011;9205;52.032;4.314;2022-12-26T06:11:22;4.70;;;1.73;;
18159;SDS011;9205;52.032;4.314;2022-12-26T06:13:51;4.80;;;2.10;;
18159;SDS011;9205;52.032;4.314;2022-12-26T06:16:19;3.80;;;2.03;;
18159;SDS011;9205;52.032;4.314;2022-12-26T06:18:47;2.17;;;1.90;;
18159;SDS011;9205;52.032;4.314;2022-12-26T06:21:16;2.17;;;1.63;;
18159;SDS011;9205;52.032;4.314;2022-12-26T06:23:45;2.53;;;2.00;;
18159;SDS011;9205;52.032;4.314;2022-12-26T06:26:14;3.77;;;1.87;;
18159;SDS011;9205;52.032;4.314;2022-12-26T06:28:42;2.30;;;1.80;;
18159;SDS011;9205;52.032;4.314;2022-12-26T06:31:12;2.47;;;1.80;;
18159;SDS011;9205;52.032;4.314;2022-12-26T06:33:44;2.20;;;1.60;;
18159;SDS011;9205;52.032;4.314;2022-12-26T06:36:12;4.83;;;1.93;;
18159;SDS011;9205;52.032;4.314;2022-12-26T06:38:44;6.13;;;1.67;;
18159;SDS011;9205;52.032;4.314;2022-12-26T06:41:12;3.43;;;1.70;;
18159;SDS011;9205;52.032;4.314;2022-12-26T06:43:41;4.23;;;1.87;;
18159;SDS011;9205;52.032;4.314;2022-12-26T06:46:11;5.43;;;1.90;;
18159;SDS011;9205;52.032;4.314;2022-12-26T06:48:41;3.40;;;2.00;;
18159;SDS011;9205;52.032;4.314;2022-12-26T06:51:10;2.37;;;1.60;;
18159;SDS011;9205;52.032;4.314;2022-12-26T06:53:41;5.77;;;1.70;;
18159;SDS011;9205;52.032;4.314;2022-12-26T06:56:10;11.60;;;2.17;;
18159;SDS011;9205;52.032;4.314;2022-12-26T06:58:39;6.47;;;1.90;;
18159;SDS011;9205;52.032;4.314;2022-12-26T07:01:08;7.27;;;1.77;;
18159;SDS011;9205;52.032;4.314;2022-12-26T07:03:37;5.23;;;1.97;;
18159;SDS011;9205;52.032;4.314;2022-12-26T07:06:06;2.33;;;1.77;;
18159;SDS011;9205;52.032;4.314;2022-12-26T07:08:37;5.93;;;1.80;;
18159;SDS011;9205;52.032;4.314;2022-12-26T07:11:12;6.27;;;1.80;;
18159;SDS011;9205;52.032;4.314;2022-12-26T07:13:41;3.83;;;1.53;;
18159;SDS011;9205;52.032;4.314;2022-12-26T07:16:11;4.53;;;2.13;;
18159;SDS011;9205;52.032;4.314;2022-12-26T07:18:39;5.50;;;1.70;;
18159;SDS011;9205;52.032;4.314;2022-12-26T07:21:07;3.37;;;1.90;;
18159;SDS011;9205;52.032;4.314;2022-12-26T07:23:36;2.33;;;1.60;;
18159;SDS011;9205;52.032;4.314;2022-12-26T07:26:04;2.13;;;1.57;;
18159;SDS011;9205;52.032;4.314;2022-12-26T07:28:34;1.83;;;1.60;;
18159;SDS011;9205;52.032;4.314;2022-12-26T07:31:02;6.13;;;1.80;;
18159;SDS011;9205;52.032;4.314;2022-12-26T07:33:30;5.00;;;1.40;;
18159;SDS011;9205;52.032;4.314;2022-12-26T07:35:58;5.23;;;1.73;;
18159;SDS011;9205;52.032;4.314;2022-12-26T07:38:26;3.90;;;2.40;;
18159;SDS011;9205;52.032;4.314;2022-12-26T07:40:54;3.03;;;1.73;;
18159;SDS011;9205;52.032;4.314;2022-12-26T07:43:21;4.00;;;2.00;;
18159;SDS011;9205;52.032;4.314;2022-12-26T07:45:51;4.07;;;1.87;;
18159;SDS011;9205;52.032;4.314;2022-12-26T07:48:23;2.90;;;1.70;;
18159;SDS011;9205;52.032;4.314;2022-12-26T07:50:51;2.93;;;1.80;;
18159;SDS011;9205;52.032;4.314;2022-12-26T07:53:18;2.27;;;1.60;;
18159;SDS011;9205;52.032;4.314;2022-12-26T07:55:45;4.53;;;1.57;;
18159;SDS011;9205;52.032;4.314;2022-12-26T07:58:14;2.20;;;1.70;;
18159;SDS011;9205;52.032;4.314;2022-12-26T08:00:42;2.23;;;1.67;;
18159;SDS011;9205;52.032;4.314;2022-12-26T08:03:10;1.27;;;1.17;;
18159;SDS011;9205;52.032;4.314;2022-12-26T08:05:38;2.23;;;1.20;;
18159;SDS011;9205;52.032;4.314;2022-12-26T08:08:06;2.30;;;0.90;;
18159;SDS011;9205;52.032;4.314;2022-12-26T08:10:33;2.10;;;1.30;;
18159;SDS011;9205;52.032;4.314;2022-12-26T08:13:01;2.27;;;1.03;;
18159;SDS011;9205;52.032;4.314;2022-12-26T08:15:28;1.87;;;0.90;;
18159;SDS011;9205;52.032;4.314;2022-12-26T08:17:55;2.40;;;1.30;;
18159;SDS011;9205;52.032;4.314;2022-12-26T08:20:24;4.40;;;0.90;;
18159;SDS011;9205;52.032;4.314;2022-12-26T08:22:53;0.93;;;0.90;;
18159;SDS011;9205;52.032;4.314;2022-12-26T08:25:20;7.70;;;1.33;;
18159;SDS011;9205;52.032;4.314;2022-12-26T08:27:47;2.70;;;0.90;;
18159;SDS011;9205;52.032;4.314;2022-12-26T08:30:15;6.50;;;1.07;;
18159;SDS011;9205;52.032;4.314;2022-12-26T08:32:44;4.63;;;1.03;;
18159;SDS011;9205;52.032;4.314;2022-12-26T08:35:11;1.50;;;1.00;;
18159;SDS011;9205;52.032;4.314;2022-12-26T08:37:40;4.93;;;1.20;;
18159;SDS011;9205;52.032;4.314;2022-12-26T08:40:08;4.23;;;1.30;;
18159;SDS011;9205;52.032;4.314;2022-12-26T08:42:35;5.00;;;1.10;;
18159;SDS011;9205;52.032;4.314;2022-12-26T08:45:05;13.23;;;1.10;;
18159;SDS011;9205;52.032;4.314;2022-12-26T08:47:33;4.63;;;1.50;;
18159;SDS011;9205;52.032;4.314;2022-12-26T08:50:00;10.53;;;1.93;;
18159;SDS011;9205;52.032;4.314;2022-12-26T08:52:27;6.90;;;1.97;;
18159;SDS011;9205;52.032;4.314;2022-12-26T08:54:56;2.90;;;1.23;;
18159;SDS011;9205;52.032;4.314;2022-12-26T08:57:23;7.07;;;1.63;;
18159;SDS011;9205;52.032;4.314;2022-12-26T08:59:50;1.83;;;1.20;;
18159;SDS011;9205;52.032;4.314;2022-12-26T09:02:18;6.00;;;0.97;;
18159;SDS011;9205;52.032;4.314;2022-12-26T09:04:45;2.87;;;1.20;;
18159;SDS011;9205;52.032;4.314;2022-12-26T09:07:12;3.80;;;1.13;;
18159;SDS011;9205;52.032;4.314;2022-12-26T09:09:40;4.17;;;1.10;;
18159;SDS011;9205;52.032;4.314;2022-12-26T09:12:09;2.20;;;1.10;;
18159;SDS011;9205;52.032;4.314;2022-12-26T09:14:36;5.43;;;1.23;;
18159;SDS011;9205;52.032;4.314;2022-12-26T09:17:04;6.83;;;1.03;;
18159;SDS011;9205;52.032;4.314;2022-12-26T09:19:31;5.30;;;0.93;;
18159;SDS011;9205;52.032;4.314;2022-12-26T09:21:58;3.30;;;0.97;;
18159;SDS011;9205;52.032;4.314;2022-12-26T09:24:43;4.47;;;1.13;;
18159;SDS011;9205;52.032;4.314;2022-12-26T09:27:14;2.53;;;1.30;;
18159;SDS011;9205;52.032;4.314;2022-12-26T09:29:41;2.33;;;0.83;;
18159;SDS011;9205;52.032;4.314;2022-12-26T09:32:08;2.17;;;1.00;;
18159;SDS011;9205;52.032;4.314;2022-12-26T09:34:36;5.23;;;1.30;;
18159;SDS011;9205;52.032;4.314;2022-12-26T09:37:04;3.47;;;1.00;;
18159;SDS011;9205;52.032;4.314;2022-12-26T09:39:31;2.50;;;1.30;;
18159;SDS011;9205;52.032;4.314;2022-12-26T09:42:00;7.13;;;1.40;;
18159;SDS011;9205;52.032;4.314;2022-12-26T09:44:47;13.23;;;4.37;;
18159;SDS011;9205;52.032;4.314;2022-12-26T09:47:52;2.27;;;1.13;;
18159;SDS011;9205;52.032;4.314;2022-12-26T09:50:30;2.80;;;1.10;;
18159;SDS011;9205;52.032;4.314;2022-12-26T09:53:04;2.70;;;1.10;;
18159;SDS011;9205;52.032;4.314;2022-12-26T09:55:39;6.00;;;1.10;;
18159;SDS011;9205;52.032;4.314;2022-12-26T09:58:13;1.53;;;1.00;;
18159;SDS011;9205;52.032;4.314;2022-12-26T10:00:54;3.93;;;1.40;;
18159;SDS011;9205;52.032;4.314;2022-12-26T10:03:27;5.33;;;1.30;;
18159;SDS011;9205;52.032;4.314;2022-12-26T10:06:09;5.83;;;1.30;;
18159;SDS011;9205;52.032;4.314;2022-12-26T10:08:52;4.17;;;1.20;;
18159;SDS011;9205;52.032;4.314;2022-12-26T10:11:52;8.80;;;1.37;;
18159;SDS011;9205;52.032;4.314;2022-12-26T10:14:42;5.23;;;1.00;;
18159;SDS011;9205;52.032;4.314;2022-12-26T10:17:22;5.23;;;1.40;;
18159;SDS011;9205;52.032;4.314;2022-12-26T10:20:11;6.53;;;1.70;;
18159;SDS011;9205;52.032;4.314;2022-12-26T10:23:03;3.30;;;1.30;;
18159;SDS011;9205;52.032;4.314;2022-12-26T10:25:50;5.10;;;1.30;;
18159;SDS011;9205;52.032;4.314;2022-12-26T10:28:26;5.73;;;1.10;;
18159;SDS011;9205;52.032;4.314;2022-12-26T10:31:01;2.53;;;1.03;;
18159;SDS011;9205;52.032;4.314;2022-12-26T10:33:38;2.63;;;1.00;;
18159;SDS011;9205;52.032;4.314;2022-12-26T10:36:15;5.30;;;1.43;;
18159;SDS011;9205;52.032;4.314;2022-12-26T10:38:52;0.90;;;0.90;;
18159;SDS011;9205;52.032;4.314;2022-12-26T10:41:25;1.07;;;0.90;;
18159;SDS011;9205;52.032;4.314;2022-12-26T10:43:59;8.23;;;1.10;;
18159;SDS011;9205;52.032;4.314;2022-12-26T10:49:43;4.37;;;1.10;;
18159;SDS011;9205;52.032;4.314;2022-12-26T10:52:16;6.37;;;1.73;;
18159;SDS011;9205;52.032;4.314;2022-12-26T10:54:50;3.23;;;1.20;;
18159;SDS011;9205;52.032;4.314;2022-12-26T10:57:22;2.00;;;0.90;;
18159;SDS011;9205;52.032;4.314;2022-12-26T10:59:53;1.77;;;0.90;;
18159;SDS011;9205;52.032;4.314;2022-12-26T11:02:22;1.50;;;1.00;;
18159;SDS011;9205;52.032;4.314;2022-12-26T11:05:02;3.07;;;1.00;;
18159;SDS011;9205;52.032;4.314;2022-12-26T11:07:34;0.80;;;0.60;;
18159;SDS011;9205;52.032;4.314;2022-12-26T11:10:06;2.50;;;0.90;;
18159;SDS011;9205;52.032;4.314;2022-12-26T11:12:46;2.53;;;1.10;;
18159;SDS011;9205;52.032;4.314;2022-12-26T11:15:18;1.23;;;0.77;;
18159;SDS011;9205;52.032;4.314;2022-12-26T11:17:52;1.23;;;1.00;;
18159;SDS011;9205;52.032;4.314;2022-12-26T11:20:24;0.93;;;0.87;;
18159;SDS011;9205;52.032;4.314;2022-12-26T11:23:12;1.93;;;1.03;;
18159;SDS011;9205;52.032;4.314;2022-12-26T11:25:50;3.93;;;0.80;;
18159;SDS011;9205;52.032;4.314;2022-12-26T11:28:24;1.73;;;0.80;;
18159;SDS011;9205;52.032;4.314;2022-12-26T11:30:56;2.20;;;0.80;;
18159;SDS011;9205;52.032;4.314;2022-12-26T11:33:26;0.90;;;0.70;;
18159;SDS011;9205;52.032;4.314;2022-12-26T11:36:00;2.90;;;0.70;;
18159;SDS011;9205;52.032;4.314;2022-12-26T11:38:40;1.83;;;0.70;;
18159;SDS011;9205;52.032;4.314;2022-12-26T11:41:15;1.03;;;0.70;;
18159;SDS011;9205;52.032;4.314;2022-12-26T11:44:10;3.20;;;0.70;;
18159;SDS011;9205;52.032;4.314;2022-12-26T11:46:46;1.40;;;0.93;;
18159;SDS011;9205;52.032;4.314;2022-12-26T11:49:19;2.43;;;0.80;;
18159;SDS011;9205;52.032;4.314;2022-12-26T11:51:56;2.00;;;0.80;;
18159;SDS011;9205;52.032;4.314;2022-12-26T11:54:27;0.60;;;0.60;;
18159;SDS011;9205;52.032;4.314;2022-12-26T11:57:04;0.60;;;0.60;;
18159;SDS011;9205;52.032;4.314;2022-12-26T11:59:43;4.33;;;0.87;;
18159;SDS011;9205;52.032;4.314;2022-12-26T12:02:17;0.70;;;0.70;;
18159;SDS011;9205;52.032;4.314;2022-12-26T12:04:51;0.70;;;0.70;;
18159;SDS011;9205;52.032;4.314;2022-12-26T12:07:28;1.03;;;0.80;;
18159;SDS011;9205;52.032;4.314;2022-12-26T12:13:34;0.93;;;0.70;;
18159;SDS011;9205;52.032;4.314;2022-12-26T12:16:30;5.63;;;0.83;;
18159;SDS011;9205;52.032;4.314;2022-12-26T12:19:19;3.07;;;0.80;;
18159;SDS011;9205;52.032;4.314;2022-12-26T12:22:02;1.30;;;0.80;;
18159;SDS011;9205;52.032;4.314;2022-12-26T12:24:54;1.00;;;0.80;;
18159;SDS011;9205;52.032;4.314;2022-12-26T12:27:42;0.77;;;0.70;;
18159;SDS011;9205;52.032;4.314;2022-12-26T12:30:22;1.67;;;0.70;;
18159;SDS011;9205;52.032;4.314;2022-12-26T12:36:04;3.97;;;0.83;;
18159;SDS011;9205;52.032;4.314;2022-12-26T12:38:40;1.17;;;0.83;;
18159;SDS011;9205;52.032;4.314;2022-12-26T12:44:50;5.13;;;0.80;;
18159;SDS011;9205;52.032;4.314;2022-12-26T12:47:33;4.67;;;0.87;;
18159;SDS011;9205;52.032;4.314;2022-12-26T12:50:13;0.70;;;0.70;;
18159;SDS011;9205;52.032;4.314;2022-12-26T12:53:03;1.90;;;0.80;;
18159;SDS011;9205;52.032;4.314;2022-12-26T12:55:46;1.73;;;0.60;;
18159;SDS011;9205;52.032;4.314;2022-12-26T12:58:31;1.97;;;0.60;;
18159;SDS011;9205;52.032;4.314;2022-12-26T13:01:23;2.43;;;1.20;;
18159;SDS011;9205;52.032;4.314;2022-12-26T13:03:56;0.77;;;0.60;;
18159;SDS011;9205;52.032;4.314;2022-12-26T13:06:34;1.63;;;0.70;;
18159;SDS011;9205;52.032;4.314;2022-12-26T13:09:09;3.03;;;0.90;;
18159;SDS011;9205;52.032;4.314;2022-12-26T13:11:43;1.93;;;0.80;;
18159;SDS011;9205;52.032;4.314;2022-12-26T13:14:18;1.77;;;0.83;;
18159;SDS011;9205;52.032;4.314;2022-12-26T13:16:52;4.43;;;1.00;;
18159;SDS011;9205;52.032;4.314;2022-12-26T13:19:24;1.40;;;1.10;;
18159;SDS011;9205;52.032;4.314;2022-12-26T13:22:00;4.03;;;0.90;;
18159;SDS011;9205;52.032;4.314;2022-12-26T13:24:32;1.67;;;0.77;;
18159;SDS011;9205;52.032;4.314;2022-12-26T13:27:08;0.90;;;0.70;;
18159;SDS011;9205;52.032;4.314;2022-12-26T13:29:46;4.03;;;1.00;;
18159;SDS011;9205;52.032;4.314;2022-12-26T13:32:16;1.37;;;0.90;;
18159;SDS011;9205;52.032;4.314;2022-12-26T13:34:47;2.83;;;0.70;;
18159;SDS011;9205;52.032;4.314;2022-12-26T13:40:24;2.17;;;0.70;;
18159;SDS011;9205;52.032;4.314;2022-12-26T13:42:56;1.50;;;0.80;;
18159;SDS011;9205;52.032;4.314;2022-12-26T13:45:48;0.87;;;0.70;;
18159;SDS011;9205;52.032;4.314;2022-12-26T13:51:52;1.53;;;1.07;;
18159;SDS011;9205;52.032;4.314;2022-12-26T13:54:24;4.30;;;1.00;;
18159;SDS011;9205;52.032;4.314;2022-12-26T14:00:05;1.97;;;0.90;;
18159;SDS011;9205;52.032;4.314;2022-12-26T14:06:06;2.03;;;0.73;;
18159;SDS011;9205;52.032;4.314;2022-12-26T14:09:30;3.10;;;0.90;;
18159;SDS011;9205;52.032;4.314;2022-12-26T14:12:25;1.77;;;1.07;;
18159;SDS011;9205;52.032;4.314;2022-12-26T14:15:24;5.17;;;0.97;;
18159;SDS011;9205;52.032;4.314;2022-12-26T14:18:12;2.00;;;1.17;;
18159;SDS011;9205;52.032;4.314;2022-12-26T14:20:56;1.10;;;0.80;;
18159;SDS011;9205;52.032;4.314;2022-12-26T14:23:50;4.30;;;1.30;;
18159;SDS011;9205;52.032;4.314;2022-12-26T14:26:32;1.33;;;0.90;;
18159;SDS011;9205;52.032;4.314;2022-12-26T14:29:12;2.53;;;0.90;;
18159;SDS011;9205;52.032;4.314;2022-12-26T14:32:07;2.57;;;1.17;;
18159;SDS011;9205;52.032;4.314;2022-12-26T14:35:01;3.50;;;1.23;;
18159;SDS011;9205;52.032;4.314;2022-12-26T14:37:46;7.27;;;1.40;;
18159;SDS011;9205;52.032;4.314;2022-12-26T14:40:24;3.30;;;1.20;;
18159;SDS011;9205;52.032;4.314;2022-12-26T14:43:04;3.30;;;0.90;;
18159;SDS011;9205;52.032;4.314;2022-12-26T14:45:57;3.80;;;0.73;;
18159;SDS011;9205;52.032;4.314;2022-12-26T14:48:39;3.17;;;1.30;;
18159;SDS011;9205;52.032;4.314;2022-12-26T14:51:30;28.67;;;14.63;;
18159;SDS011;9205;52.032;4.314;2022-12-26T14:54:15;2.93;;;0.97;;
18159;SDS011;9205;52.032;4.314;2022-12-26T15:00:15;0.77;;;0.70;;
18159;SDS011;9205;52.032;4.314;2022-12-26T15:03:16;3.80;;;1.00;;
18159;SDS011;9205;52.032;4.314;2022-12-26T15:06:25;1.50;;;0.93;;
18159;SDS011;9205;52.032;4.314;2022-12-26T15:13:12;3.73;;;0.93;;
18159;SDS011;9205;52.032;4.314;2022-12-26T15:22:41;2.97;;;1.20;;
18159;SDS011;9205;52.032;4.314;2022-12-26T15:25:56;2.67;;;1.40;;
18159;SDS011;9205;52.032;4.314;2022-12-26T15:29:02;4.77;;;1.07;;
18159;SDS011;9205;52.032;4.314;2022-12-26T15:32:01;6.07;;;1.60;;
18159;SDS011;9205;52.032;4.314;2022-12-26T15:34:41;4.37;;;1.20;;
18159;SDS011;9205;52.032;4.314;2022-12-26T15:37:35;4.27;;;1.20;;
18159;SDS011;9205;52.032;4.314;2022-12-26T15:40:42;5.03;;;1.50;;
18159;SDS011;9205;52.032;4.314;2022-12-26T15:43:22;9.63;;;1.80;;
18159;SDS011;9205;52.032;4.314;2022-12-26T15:46:06;2.27;;;1.17;;
18159;SDS011;9205;52.032;4.314;2022-12-26T15:48:52;2.50;;;1.00;;
18159;SDS011;9205;52.032;4.314;2022-12-26T15:51:49;4.63;;;1.10;;
18159;SDS011;9205;52.032;4.314;2022-12-26T15:57:44;3.17;;;1.57;;
18159;SDS011;9205;52.032;4.314;2022-12-26T16:00:22;6.03;;;0.90;;
18159;SDS011;9205;52.032;4.314;2022-12-26T16:05:56;3.80;;;1.10;;
18159;SDS011;9205;52.032;4.314;2022-12-26T16:08:47;3.03;;;1.23;;
18159;SDS011;9205;52.032;4.314;2022-12-26T16:11:43;4.30;;;1.50;;
18159;SDS011;9205;52.032;4.314;2022-12-26T16:14:24;3.63;;;1.33;;
18159;SDS011;9205;52.032;4.314;2022-12-26T16:17:09;1.53;;;0.83;;
18159;SDS011;9205;52.032;4.314;2022-12-26T16:19:47;4.00;;;1.30;;
18159;SDS011;9205;52.032;4.314;2022-12-26T16:22:20;1.93;;;1.33;;
18159;SDS011;9205;52.032;4.314;2022-12-26T16:25:11;4.90;;;1.30;;
18159;SDS011;9205;52.032;4.314;2022-12-26T16:27:42;2.40;;;1.17;;
18159;SDS011;9205;52.032;4.314;2022-12-26T16:30:14;5.83;;;1.40;;
18159;SDS011;9205;52.032;4.314;2022-12-26T16:32:46;2.70;;;1.00;;
18159;SDS011;9205;52.032;4.314;2022-12-26T16:35:18;1.83;;;1.00;;
18159;SDS011;9205;52.032;4.314;2022-12-26T16:37:53;1.87;;;0.93;;
18159;SDS011;9205;52.032;4.314;2022-12-26T16:40:30;3.33;;;0.97;;
18159;SDS011;9205;52.032;4.314;2022-12-26T16:43:01;2.53;;;1.03;;
18159;SDS011;9205;52.032;4.314;2022-12-26T16:45:32;2.80;;;1.23;;
18159;SDS011;9205;52.032;4.314;2022-12-26T16:48:05;4.07;;;0.83;;
18159;SDS011;9205;52.032;4.314;2022-12-26T16:50:36;1.80;;;0.90;;
18159;SDS011;9205;52.032;4.314;2022-12-26T16:53:12;2.97;;;1.17;;